KDAB/DAB METAR and TAF weather

Enter ICAO airport designator
Station Type Date Time Source
KDAB METAR 2019/08/19 07:53 UTC NOAA

KDAB 190753Z 14003KT 10SM FEW020 SCT048 OVC150 24/23 A3008 RMK AO2 SLP185 T02390228


Station Type Date Time Source
KDAB Decoded METAR 2019/08/19 07:53 UTC NOAA

Station name not available
Aug 19, 2019 - 03:53 AM EDT / 2019.08.19 0753 UTC
Wind: from the SE (140 degrees) at 3 MPH (3 KT):0
Visibility: 10 mile(s):0
Sky conditions: overcast
Temperature: 75.0 F (23.9 C)
Dew Point: 73.0 F (22.8 C)
Relative Humidity: 93%
Pressure (altimeter): 30.08 in. Hg (1018 hPa)
ob: KDAB 190753Z 14003KT 10SM FEW020 SCT048 OVC150 24/23 A3008 RMK AO2 SLP185 T02390228
cycle: 8

Station Type Date Time Source
KDAB TAF 2019/08/19 06:36 UTC NOAA

TAF KDAB 190529Z 1906/2006 VRB03KT P6SM FEW020 BKN250
FM191500 17006KT P6SM FEW030 SCT250
FM191800 13008KT P6SM SCT040 SCT250
FM200000 15002KT P6SM FEW050 SCT250

Example: see airport list